メインページ
METAR-TAF:

METAR-TAF

空港 :

ブルネイ国際空港

ブルネイ, ブルネイ

緯度: 04-56N, 経度: 114-56E, 海抜: 22m

現時点の気象観測

当レポートは18分前の23:30(UTC)に作成
南/南西の風 2kt
気温 27°C
湿度 89%
気圧 1012 hPa
視程10km以上
高度1400ftの雲はほとんどない
高度1500ftの雲はほとんどない, 積乱雲.
高度30000ftの千切れ雲あり

METAR: WBSB 242330Z 20002KT 9999 FEW014 FEW015CB BKN300 27/25 Q1012 NOSIG

時間: 07:48 (23:48 UTC)

予報

当レポートは48分前の23:00(UTC)に作成
予報は25日の 00時(UTC)から 26日の 06時(UTC)まで有効
南/南西の風 4kt
視程10km以上
高度1500ftの雲はほとんどない
高度1600ftの雲はほとんどない, 積乱雲.
25日の 02時(UTC)から 25日の 04時(UTC)まで徐々に
北/北西の風 10kt
高度1600ftの雲はほとんどない
高度1700ftの雲はほとんどない, 積乱雲.

TAF: WBSB 242300Z 2500/2606 20004KT 9999 FEW015 FEW016CB BECMG 2502/2504 34010KT FEW016 FEW017CB

4,000以上の空港の気象観測と天気予報(METAR報とTAF報)

利用可能な観測所は地図上に黄色い丸と赤い丸で示す。

丸の上にカーソルを重ねると観測所名を参照できる。

次にクリックすると気象観測と天気予報を参照できる。

マップの切り替え:黒色「×」印の緑ボタンをクリックして拡大、「-」印の緑ボタンをクリックして縮小、緑色の三角印をクリックして隣りの地図に切り替え


METAR-TAF: